Terminal Aerodrome Forecast
Issued by NWS Quad Cities IA IL

Home | Current Version | Previous Version | Text Only | Print | Product List | Glossary On
Versions: 1 2 3 4 5 6 7 8 9 10 11 12 13 14 15 16 17 18 19 20 21 22 23
795
FTUS43 KDVN 062332
TAFDBQ
TAF
KDBQ 062332Z 0700/0724 23008KT P6SM SCT200
      TEMPO 0700/0702 BKN008
     FM070600 24012G18KT P6SM BKN200
     FM071800 27015G25KT 6SM HZ BKN040=

USA.gov is the U.S. government's official web portal to all federal, state and local government web resources and services.